MOL Explorer — 3EKT8 — position and weather

sailwx.info

Track history (hours):
 
Tides and Currents Weather Stations Pressure Air Temp Water Temp Dewpoint Dewpoint Depression Visibility Wind Speed Wind Dir Waves Ship Positions

MOL Explorer

Last reported at 2016-Jun-20 19:32 UTC. Time now 2016-Jun-28 13:27 UTC.
Position N 23°46' E 118°25'.

Length 293 m; draft 8.2 m.

Type: Ship (hazmat cat A). MMSI: 372827000.

Date/timePositionNaut miles runAvg speedWind from/ knotsBaromVisibWave heightAir tempDewpointWater temp
2016-Jun-20 19:32N 23°46' E 118°25'1813.0
2016-Jun-20 18:10N 23°56' E 118°42'2412.8
2016-Jun-20 16:16N 24°15' E 118°58'34911.7
2016-Jun-19 10:31N 28°22' E 123°33'  
2016-Jun-15 21:11N 33°53' E 134°54'811.9
2016-Jun-15 20:30N 34°01' E 134°56'1112.1
2016-Jun-15 19:33N 34°12' E 134°56'1413.9
2016-Jun-15 18:33N 34°25' E 135°03'1717.4
2016-Jun-15 17:33N 34°38' E 135°16'2 1.8
2016-Jun-15 16:23N 34°40' E 135°14'0 0.0
2016-Jun-15 15:23N 34°40' E 135°14'0 0.0
2016-Jun-15 14:29N 34°40' E 135°14'0 0.0
2016-Jun-15 13:29N 34°40' E 135°14'0 0.0
2016-Jun-15 12:23N 34°40' E 135°14'0 0.0
2016-Jun-15 11:17N 34°40' E 135°14'0 0.0
2016-Jun-15 10:29N 34°40' E 135°14'1 1.4
2016-Jun-15 09:33N 34°39' E 135°15'9 8.4
2016-Jun-15 08:33N 34°31' E 135°12'1414.4
2016-Jun-15 07:33N 34°20' E 135°01'1413.6
2016-Jun-15 06:32N 34°06' E 134°60'23512.4
2016-Jun-14 11:33N 34°53' E 139°39'1515.0
2016-Jun-14 10:33N 35°07' E 139°44'1111.3
2016-Jun-14 09:33N 35°19' E 139°43'1211.8
2016-Jun-14 08:33N 35°29' E 139°51'8 8.2
2016-Jun-14 07:32N 35°36' E 139°46'0 0.0
2016-Jun-14 05:32N 35°36' E 139°46'0 0.0
2016-Jun-14 04:32N 35°36' E 139°46'0 0.0
2016-Jun-14 03:32N 35°36' E 139°46'0 0.0
2016-Jun-14 02:32N 35°36' E 139°46'0 0.0
2016-Jun-14 01:32N 35°36' E 139°46'0 0.0
2016-Jun-14 00:32N 35°36' E 139°46'0 0.0
2016-Jun-13 23:32N 35°36' E 139°46'0 0.1
2016-Jun-13 22:33N 35°36' E 139°46'9 8.8
2016-Jun-13 21:33N 35°29' E 139°52'1312.7
2016-Jun-13 20:34N 35°17' E 139°45'1111.0
2016-Jun-13 19:33N 35°06' E 139°45'1110.6
2016-Jun-13 18:32N 34°56' E 139°41'1111.0
2016-Jun-13 17:33N 34°49' E 139°51'1413.2
2016-Jun-13 16:29N 34°53' E 140°08'1313.7
2016-Jun-13 15:33N 35°00' E 140°20'1413.7
2016-Jun-13 14:33N 35°09' E 140°33'1413.8
2016-Jun-13 13:34N 35°19' E 140°45'1413.9
2016-Jun-13 12:33N 35°30' E 140°56'  
Track history (hours):
 
Tides and Currents Weather Stations Pressure Air Temp Water Temp Dewpoint Dewpoint Depression Visibility Wind Speed Wind Dir Waves Ship Positions

MOL Explorer

Last reported at 2016-Jun-20 19:32 UTC. Time now 2016-Jun-28 13:27 UTC.
Position N 23°46' E 118°25'.

Length 293 m; draft 8.2 m.

Type: Ship (hazmat cat A). MMSI: 372827000.

Date/timePositionNaut miles runAvg speedWind from/ knotsBaromVisibWave heightAir tempDewpointWater temp
2016-Jun-20 19:32N 23°46' E 118°25'1813.0
2016-Jun-20 18:10N 23°56' E 118°42'2412.8
2016-Jun-20 16:16N 24°15' E 118°58'34911.7
2016-Jun-19 10:31N 28°22' E 123°33'  
2016-Jun-15 21:11N 33°53' E 134°54'811.9
2016-Jun-15 20:30N 34°01' E 134°56'1112.1
2016-Jun-15 19:33N 34°12' E 134°56'1413.9
2016-Jun-15 18:33N 34°25' E 135°03'1717.4
2016-Jun-15 17:33N 34°38' E 135°16'2 1.8
2016-Jun-15 16:23N 34°40' E 135°14'0 0.0
2016-Jun-15 15:23N 34°40' E 135°14'0 0.0
2016-Jun-15 14:29N 34°40' E 135°14'0 0.0
2016-Jun-15 13:29N 34°40' E 135°14'0 0.0
2016-Jun-15 12:23N 34°40' E 135°14'0 0.0
2016-Jun-15 11:17N 34°40' E 135°14'0 0.0
2016-Jun-15 10:29N 34°40' E 135°14'1 1.4
2016-Jun-15 09:33N 34°39' E 135°15'9 8.4
2016-Jun-15 08:33N 34°31' E 135°12'1414.4
2016-Jun-15 07:33N 34°20' E 135°01'1413.6
2016-Jun-15 06:32N 34°06' E 134°60'23512.4
2016-Jun-14 11:33N 34°53' E 139°39'1515.0
2016-Jun-14 10:33N 35°07' E 139°44'1111.3
2016-Jun-14 09:33N 35°19' E 139°43'1211.8
2016-Jun-14 08:33N 35°29' E 139°51'8 8.2
2016-Jun-14 07:32N 35°36' E 139°46'0 0.0
2016-Jun-14 05:32N 35°36' E 139°46'0 0.0
2016-Jun-14 04:32N 35°36' E 139°46'0 0.0
2016-Jun-14 03:32N 35°36' E 139°46'0 0.0
2016-Jun-14 02:32N 35°36' E 139°46'0 0.0
2016-Jun-14 01:32N 35°36' E 139°46'0 0.0
2016-Jun-14 00:32N 35°36' E 139°46'0 0.0
2016-Jun-13 23:32N 35°36' E 139°46'0 0.1
2016-Jun-13 22:33N 35°36' E 139°46'9 8.8
2016-Jun-13 21:33N 35°29' E 139°52'1312.7
2016-Jun-13 20:34N 35°17' E 139°45'1111.0
2016-Jun-13 19:33N 35°06' E 139°45'1110.6
2016-Jun-13 18:32N 34°56' E 139°41'1111.0
2016-Jun-13 17:33N 34°49' E 139°51'1413.2
2016-Jun-13 16:29N 34°53' E 140°08'1313.7
2016-Jun-13 15:33N 35°00' E 140°20'1413.7
2016-Jun-13 14:33N 35°09' E 140°33'1413.8
2016-Jun-13 13:34N 35°19' E 140°45'1413.9
2016-Jun-13 12:33N 35°30' E 140°56'  

Dump ship's entire track history